CheckWX is a tool to help pilots better visualize weather data.  It is not intended as a substitute for an official pre-flight weather briefing.

19:04:34 UTC

EDDT METAR
Berlin-Tegel International Airport
Berlin, Germany
Current

15 mins ago

EDDT 171850Z 20005KT 9999 BKN042 16/12 Q1013 NOSIG
Observed
Oct-17 @ 18:50 UTC
Wind
  • 200° at 5 KTS
Visibility
10,000+ meters
Flight Rules
VFR
Cloud Levels
  • Broken at 4,200' AGL
Temperature
16°C / 61°F
Dewpoint
12°C / 54°F
Humidity
77%
Altimeter
29.91" Hg
Pressure
1012.92 hPa
Previous

45 mins ago

EDDT 171820Z 18005KT 9999 BKN042 17/12 Q1013 NOSIG
Observed
Oct-17 @ 18:20 UTC
Wind
  • 180° at 5 KTS
Visibility
10,000+ meters
Flight Rules
VFR
Cloud Levels
  • Broken at 4,200' AGL
Temperature
17°C / 63°F
Dewpoint
12°C / 54°F
Humidity
73%
Altimeter
29.91" Hg
Pressure
1012.92 hPa
Previous

1 hour ago

EDDT 171750Z 19005KT 9999 BKN042 17/12 Q1013 NOSIG
Observed
Oct-17 @ 17:50 UTC
Wind
  • 190° at 5 KTS
Visibility
10,000+ meters
Flight Rules
VFR
Cloud Levels
  • Broken at 4,200' AGL
Temperature
17°C / 63°F
Dewpoint
12°C / 54°F
Humidity
73%
Altimeter
29.91" Hg
Pressure
1012.92 hPa